createdAt,value
2022-08-12T00:00:16.741Z,22.30
2022-08-12T00:03:21.350Z,22.30
2022-08-12T00:06:26.634Z,22.30
2022-08-12T00:09:30.458Z,22.30
2022-08-12T00:12:34.949Z,22.20
2022-08-12T00:15:38.768Z,22.20
2022-08-12T00:18:42.539Z,22.20
2022-08-12T00:21:46.414Z,22.10
2022-08-12T00:24:50.229Z,22.00
2022-08-12T00:27:54.403Z,21.90
2022-08-12T00:30:58.817Z,21.80
2022-08-12T00:34:05.393Z,21.80
2022-08-12T00:37:14.989Z,21.80
2022-08-12T00:40:19.885Z,21.70
2022-08-12T00:43:09.710Z,21.70
2022-08-12T00:46:15.012Z,21.60
2022-08-12T00:49:01.960Z,21.60
2022-08-12T00:52:06.384Z,21.50
2022-08-12T00:54:57.533Z,21.60
2022-08-12T00:57:48.938Z,21.50
2022-08-12T01:00:35.185Z,21.50
2022-08-12T01:03:20.899Z,21.50
2022-08-12T01:06:25.416Z,21.50
2022-08-12T01:09:29.389Z,21.50
2022-08-12T01:12:15.335Z,21.40
2022-08-12T01:15:01.903Z,21.30
2022-08-12T01:17:47.102Z,21.30
2022-08-12T01:20:48.149Z,21.30
2022-08-12T01:24:28.010Z,21.20
2022-08-12T01:27:18.997Z,21.30
2022-08-12T01:30:07.713Z,21.20
2022-08-12T01:32:56.030Z,21.10
2022-08-12T01:35:57.996Z,21.00
2022-08-12T01:38:57.613Z,21.00
2022-08-12T01:41:52.103Z,20.90
2022-08-12T01:44:39.953Z,20.90
2022-08-12T01:47:32.940Z,20.80
2022-08-12T01:50:34.636Z,20.80
2022-08-12T01:53:25.252Z,20.80
2022-08-12T01:56:11.402Z,20.80
2022-08-12T01:59:19.953Z,20.80
2022-08-12T02:02:11.313Z,20.70
2022-08-12T02:05:20.896Z,20.60
2022-08-12T02:08:42.134Z,20.50
2022-08-12T02:11:31.843Z,20.50
2022-08-12T02:14:37.691Z,20.40
2022-08-12T02:18:00.216Z,20.50
2022-08-12T02:21:17.405Z,20.40
2022-08-12T02:24:04.579Z,20.40
2022-08-12T02:26:51.532Z,20.30
2022-08-12T02:29:39.027Z,20.20
2022-08-12T02:32:24.306Z,20.30
2022-08-12T02:35:11.803Z,20.20
2022-08-12T02:37:59.871Z,20.20
2022-08-12T02:40:51.732Z,20.10
2022-08-12T02:43:46.155Z,20.00
2022-08-12T02:46:34.627Z,20.00
2022-08-12T02:49:29.922Z,19.80
2022-08-12T02:52:16.368Z,19.90
2022-08-12T02:55:34.901Z,19.90
2022-08-12T02:58:20.436Z,19.90
2022-08-12T03:01:24.385Z,19.90
2022-08-12T03:04:20.765Z,19.80
2022-08-12T03:07:38.108Z,19.80
2022-08-12T03:10:44.135Z,19.70
2022-08-12T03:13:36.479Z,19.70
2022-08-12T03:16:22.639Z,19.70
2022-08-12T03:19:08.743Z,19.60
2022-08-12T03:22:08.783Z,19.60
2022-08-12T03:24:58.329Z,19.60
2022-08-12T03:27:55.788Z,19.60
2022-08-12T03:30:43.818Z,19.60
2022-08-12T03:33:31.127Z,19.60
2022-08-12T03:36:21.159Z,19.60
2022-08-12T03:39:35.598Z,19.50
2022-08-12T03:42:38.744Z,19.50
2022-08-12T03:45:51.946Z,19.40
2022-08-12T03:48:59.684Z,19.40
2022-08-12T03:52:04.860Z,19.40
2022-08-12T03:55:09.255Z,19.40
2022-08-12T03:58:13.614Z,19.30
2022-08-12T04:00:59.234Z,19.30
2022-08-12T04:03:54.108Z,19.30
2022-08-12T04:06:47.190Z,19.20
2022-08-12T04:09:32.691Z,19.20
2022-08-12T04:12:36.649Z,19.20
2022-08-12T04:15:25.894Z,19.20
2022-08-12T04:18:18.016Z,19.20
2022-08-12T04:21:03.638Z,19.10
2022-08-12T04:23:49.201Z,19.10
2022-08-12T04:26:35.821Z,19.10
2022-08-12T04:29:22.697Z,19.00
2022-08-12T04:32:27.910Z,19.00
2022-08-12T04:35:13.486Z,19.00
2022-08-12T04:38:00.961Z,18.90
2022-08-12T04:40:47.016Z,19.00
2022-08-12T04:44:00.813Z,19.00
2022-08-12T04:46:37.533Z,19.00
2022-08-12T04:49:24.212Z,19.00
2022-08-12T04:52:09.788Z,19.00
2022-08-12T04:54:55.424Z,19.00
2022-08-12T04:57:40.797Z,19.00
2022-08-12T05:00:27.616Z,19.00
2022-08-12T05:03:14.022Z,19.00
2022-08-12T05:05:59.366Z,19.00
2022-08-12T05:08:44.687Z,19.00
2022-08-12T05:11:30.177Z,19.00
2022-08-12T05:14:16.308Z,19.00
2022-08-12T05:17:01.743Z,19.10
2022-08-12T05:19:52.198Z,19.20
2022-08-12T05:22:39.214Z,19.20
2022-08-12T05:25:25.095Z,19.20
2022-08-12T05:28:13.067Z,19.20
2022-08-12T05:31:01.633Z,19.20
2022-08-12T05:33:47.589Z,19.20
2022-08-12T05:36:33.312Z,19.20
2022-08-12T05:39:18.694Z,19.30
2022-08-12T05:42:04.419Z,19.30
2022-08-12T05:44:49.391Z,19.30
2022-08-12T05:47:53.290Z,19.30
2022-08-12T05:50:39.985Z,19.30
2022-08-12T05:53:25.038Z,19.40
2022-08-12T05:56:28.879Z,19.50
2022-08-12T05:59:14.459Z,19.50
2022-08-12T06:02:08.743Z,19.30
2022-08-12T06:05:00.232Z,19.20
2022-08-12T06:08:02.343Z,19.40
2022-08-12T06:10:50.151Z,19.50
2022-08-12T06:13:54.215Z,19.50
2022-08-12T06:16:40.072Z,19.50
2022-08-12T06:19:25.703Z,19.70
2022-08-12T06:22:31.042Z,19.70
2022-08-12T06:25:22.105Z,19.60
2022-08-12T06:28:17.291Z,19.50
2022-08-12T06:31:24.912Z,19.60
2022-08-12T06:35:25.183Z,19.70
2022-08-12T06:37:19.198Z,19.80
2022-08-12T06:40:06.485Z,19.90
2022-08-12T06:42:52.816Z,19.90
2022-08-12T06:45:49.423Z,19.80
2022-08-12T06:48:34.543Z,19.80
2022-08-12T06:51:20.673Z,19.90
2022-08-12T06:54:07.174Z,20.10
2022-08-12T06:58:06.399Z,20.20
2022-08-12T06:59:58.618Z,20.30
2022-08-12T07:02:46.673Z,20.50
2022-08-12T07:05:32.145Z,20.50
2022-08-12T07:08:18.201Z,20.70
2022-08-12T07:11:06.277Z,20.60
2022-08-12T07:14:11.164Z,20.80
2022-08-12T07:17:02.158Z,20.90
2022-08-12T07:19:48.567Z,20.90
2022-08-12T07:22:34.669Z,21.10
2022-08-12T07:25:41.197Z,21.20
2022-08-12T07:28:29.458Z,21.30
2022-08-12T07:31:17.381Z,21.50
2022-08-12T07:34:04.512Z,21.70
2022-08-12T07:36:50.073Z,21.90
2022-08-12T07:39:35.590Z,22.10
2022-08-12T07:42:20.980Z,22.40
2022-08-12T07:45:07.431Z,22.70
2022-08-12T07:47:52.894Z,22.70
2022-08-12T07:50:38.613Z,22.90
2022-08-12T07:53:23.782Z,23.00
2022-08-12T07:56:10.816Z,22.90
2022-08-12T07:58:59.381Z,23.00
2022-08-12T08:01:44.914Z,23.20
2022-08-12T08:04:48.819Z,23.40
2022-08-12T08:07:34.471Z,23.40
2022-08-12T08:10:20.396Z,23.60
2022-08-12T08:13:06.569Z,23.70
2022-08-12T08:16:02.990Z,23.90
2022-08-12T08:18:48.989Z,24.00
2022-08-12T08:21:35.376Z,24.10
2022-08-12T08:24:24.452Z,24.20
2022-08-12T08:27:10.943Z,24.40
2022-08-12T08:29:57.840Z,24.60
2022-08-12T08:32:43.147Z,24.70
2022-08-12T08:35:36.843Z,24.70
2022-08-12T08:38:35.216Z,24.90
2022-08-12T08:42:19.273Z,25.00
2022-08-12T08:44:45.128Z,25.30
2022-08-12T08:47:30.604Z,25.40
2022-08-12T08:50:16.187Z,25.60
2022-08-12T08:53:01.217Z,25.70
2022-08-12T08:56:04.782Z,25.70
2022-08-12T08:58:51.088Z,25.70
2022-08-12T09:01:38.671Z,25.90
2022-08-12T09:05:12.752Z,26.10
2022-08-12T09:10:36.547Z,26.40
2022-08-12T09:13:29.154Z,26.70
2022-08-12T09:16:36.704Z,26.80
2022-08-12T09:19:26.792Z,26.80
2022-08-12T09:22:18.491Z,26.80
2022-08-12T09:25:06.995Z,26.70
2022-08-12T09:28:03.385Z,26.50
2022-08-12T09:30:50.959Z,26.50
2022-08-12T09:34:28.504Z,26.50
2022-08-12T09:37:01.126Z,26.40
2022-08-12T09:40:00.858Z,26.30
2022-08-12T09:43:16.187Z,26.50
2022-08-12T09:46:19.597Z,26.50
2022-08-12T09:49:13.541Z,26.50
2022-08-12T09:52:02.065Z,26.50
2022-08-12T09:54:48.244Z,26.40
2022-08-12T09:58:46.195Z,26.20
2022-08-12T10:00:51.774Z,26.10
2022-08-12T10:03:55.481Z,26.10
2022-08-12T10:06:53.982Z,26.40
2022-08-12T10:09:57.978Z,26.90
2022-08-12T10:13:07.869Z,27.70
2022-08-12T10:16:02.480Z,28.10
2022-08-12T10:19:02.267Z,28.50
2022-08-12T10:21:47.853Z,28.60
2022-08-12T10:24:41.780Z,28.80
2022-08-12T10:28:04.781Z,28.70
2022-08-12T10:30:58.969Z,28.40
2022-08-12T10:34:04.954Z,28.30
2022-08-12T10:36:54.271Z,28.50
2022-08-12T10:40:05.731Z,28.80
2022-08-12T10:43:03.744Z,28.90
2022-08-12T10:45:58.489Z,28.80
2022-08-12T10:48:58.334Z,28.90
2022-08-12T10:52:04.112Z,29.10
2022-08-12T10:54:58.433Z,29.20
2022-08-12T10:58:13.471Z,29.70
2022-08-12T11:01:25.841Z,29.80
2022-08-12T11:04:28.359Z,29.80
2022-08-12T11:07:09.743Z,29.80
2022-08-12T11:10:05.731Z,30.10
2022-08-12T11:12:58.273Z,30.40
2022-08-12T11:16:18.811Z,30.30
2022-08-12T11:18:54.906Z,30.30
2022-08-12T11:21:57.537Z,30.70
2022-08-12T11:24:51.152Z,31.00
2022-08-12T11:27:37.484Z,31.10
2022-08-12T11:30:31.470Z,31.00
2022-08-12T11:33:24.010Z,31.10
2022-08-12T11:36:22.706Z,31.40
2022-08-12T11:39:07.959Z,31.70
2022-08-12T11:41:57.962Z,31.90
2022-08-12T11:44:44.933Z,32.00
2022-08-12T11:47:30.164Z,32.30
2022-08-12T11:50:19.552Z,32.30
2022-08-12T11:53:05.077Z,32.50
2022-08-12T11:56:11.485Z,32.60
2022-08-12T12:02:05.511Z,32.80
2022-08-12T12:04:52.664Z,33.00
2022-08-12T12:08:37.781Z,33.00
2022-08-12T12:10:54.084Z,33.10
2022-08-12T12:14:06.305Z,32.90
2022-08-12T12:16:49.992Z,32.80
2022-08-12T12:19:39.909Z,33.00
2022-08-12T12:22:31.666Z,33.30
2022-08-12T12:25:19.797Z,33.40
2022-08-12T12:28:06.868Z,33.40
2022-08-12T12:30:54.546Z,33.30
2022-08-12T12:33:56.746Z,33.50
2022-08-12T12:36:47.658Z,33.60
2022-08-12T12:39:55.498Z,33.30
2022-08-12T12:42:45.098Z,33.80
2022-08-12T12:45:45.823Z,33.90
2022-08-12T12:48:31.861Z,33.70
2022-08-12T12:51:49.324Z,33.90
2022-08-12T12:54:26.011Z,34.00
2022-08-12T12:57:14.636Z,33.70
2022-08-12T13:00:17.968Z,33.40
2022-08-12T13:03:03.170Z,33.50
2022-08-12T13:05:53.874Z,33.20
2022-08-12T13:08:40.019Z,32.60
2022-08-12T13:11:39.108Z,32.30
2022-08-12T13:14:27.880Z,32.30
2022-08-12T13:17:19.886Z,32.20
2022-08-12T13:20:05.713Z,32.00
2022-08-12T13:22:53.230Z,31.70
2022-08-12T13:25:41.590Z,31.50
2022-08-12T13:28:29.928Z,31.80
2022-08-12T13:31:17.743Z,32.20
2022-08-12T13:34:32.088Z,32.20
2022-08-12T13:37:10.220Z,32.20
2022-08-12T13:39:55.846Z,32.60
2022-08-12T13:42:41.591Z,32.80
2022-08-12T13:45:32.321Z,33.10
2022-08-12T13:48:19.895Z,33.50
2022-08-12T13:51:05.618Z,33.60
2022-08-12T13:53:59.156Z,33.80
2022-08-12T13:56:50.153Z,33.80
2022-08-12T13:59:48.301Z,33.80
2022-08-12T14:02:40.413Z,33.50
2022-08-12T14:05:38.419Z,33.40
2022-08-12T14:08:24.885Z,33.40
2022-08-12T14:11:13.168Z,33.70
2022-08-12T14:14:04.544Z,33.90
2022-08-12T14:16:58.231Z,34.00
2022-08-12T14:20:03.671Z,33.70
2022-08-12T14:22:49.742Z,33.20
2022-08-12T14:25:40.757Z,32.40
2022-08-12T14:28:32.278Z,32.20
2022-08-12T14:31:18.636Z,32.10
2022-08-12T14:34:05.074Z,32.50
2022-08-12T14:36:50.866Z,32.80
2022-08-12T14:39:36.450Z,32.70
2022-08-12T14:42:26.080Z,32.60
2022-08-12T14:45:11.320Z,32.30
2022-08-12T14:47:58.951Z,32.30
2022-08-12T14:51:09.705Z,32.10
2022-08-12T14:55:10.835Z,31.80
2022-08-12T14:58:00.491Z,31.50
2022-08-12T15:00:23.333Z,31.60
2022-08-12T15:03:14.339Z,32.00
2022-08-12T15:06:44.526Z,32.00
2022-08-12T15:09:16.006Z,32.40
2022-08-12T15:12:03.795Z,32.20
2022-08-12T15:14:49.593Z,31.70
2022-08-12T15:17:38.541Z,31.30
2022-08-12T15:20:33.033Z,30.90
2022-08-12T15:23:32.731Z,31.00
2022-08-12T15:26:20.653Z,30.70
2022-08-12T15:29:11.585Z,31.00
2022-08-12T15:32:02.056Z,31.20
2022-08-12T15:34:49.881Z,31.30
2022-08-12T15:38:08.891Z,31.30
2022-08-12T15:40:52.440Z,31.50
2022-08-12T15:44:17.056Z,31.60
2022-08-12T15:46:43.580Z,31.50
2022-08-12T15:49:28.767Z,31.00
2022-08-12T15:52:29.623Z,30.70
2022-08-12T15:55:16.754Z,30.60
2022-08-12T15:58:03.678Z,30.50
2022-08-12T16:00:51.976Z,30.50
2022-08-12T16:03:45.930Z,30.40
2022-08-12T16:07:04.208Z,30.30
2022-08-12T16:10:04.732Z,30.50
2022-08-12T16:12:54.410Z,30.80
2022-08-12T16:15:42.263Z,31.00
2022-08-12T16:18:37.356Z,31.10
2022-08-12T16:21:50.355Z,31.30
2022-08-12T16:24:28.812Z,31.30
2022-08-12T16:27:14.756Z,31.50
2022-08-12T16:30:00.222Z,31.50
2022-08-12T16:32:52.814Z,31.70
2022-08-12T16:35:40.784Z,31.60
2022-08-12T16:38:28.959Z,31.60
2022-08-12T16:41:14.073Z,31.40
2022-08-12T16:44:00.950Z,31.20
2022-08-12T16:46:57.642Z,31.10
2022-08-12T16:49:43.990Z,31.10
2022-08-12T16:52:29.214Z,31.10
2022-08-12T16:55:15.224Z,31.10
2022-08-12T16:58:01.667Z,31.10
2022-08-12T17:00:48.464Z,31.20
2022-08-12T17:03:37.604Z,31.20
2022-08-12T17:06:27.362Z,31.20
2022-08-12T17:09:16.909Z,31.20
2022-08-12T17:12:03.708Z,31.30
2022-08-12T17:14:52.996Z,31.20
2022-08-12T17:17:40.245Z,30.80
2022-08-12T17:20:34.054Z,30.60
2022-08-12T17:23:26.638Z,30.40
2022-08-12T17:26:19.182Z,30.10
2022-08-12T17:29:08.185Z,29.90
2022-08-12T17:32:01.355Z,29.80
2022-08-12T17:35:10.211Z,29.60
2022-08-12T17:38:09.306Z,29.80
2022-08-12T17:40:57.591Z,29.80
2022-08-12T17:43:54.855Z,29.70
2022-08-12T17:46:44.838Z,29.70
2022-08-12T17:50:02.124Z,29.50
2022-08-12T17:52:45.292Z,29.30
2022-08-12T17:55:44.305Z,29.00
2022-08-12T17:58:35.668Z,28.90
2022-08-12T18:01:24.204Z,28.60
2022-08-12T18:04:21.943Z,28.60
2022-08-12T18:07:13.021Z,28.40
2022-08-12T18:10:00.700Z,28.30
2022-08-12T18:12:52.251Z,28.10
2022-08-12T18:16:04.159Z,28.00
2022-08-12T18:18:48.986Z,28.00
2022-08-12T18:22:02.821Z,27.90
2022-08-12T18:24:40.035Z,27.90
2022-08-12T18:27:44.620Z,27.90
2022-08-12T18:30:35.809Z,28.00
2022-08-12T18:33:25.582Z,27.90
2022-08-12T18:36:13.121Z,28.00
2022-08-12T18:38:59.879Z,28.10
2022-08-12T18:41:46.825Z,28.00
2022-08-12T18:44:33.429Z,28.10
2022-08-12T18:47:20.723Z,27.90
2022-08-12T18:50:06.324Z,28.00
2022-08-12T18:52:56.976Z,27.90
2022-08-12T18:55:43.201Z,27.70
2022-08-12T18:58:59.509Z,27.70
2022-08-12T19:02:22.225Z,27.70
2022-08-12T19:04:57.337Z,27.70
2022-08-12T19:08:00.120Z,27.70
2022-08-12T19:10:50.076Z,27.70
2022-08-12T19:13:55.058Z,27.70
2022-08-12T19:16:44.299Z,27.60
2022-08-12T19:19:41.372Z,27.50
2022-08-12T19:22:28.855Z,27.50
2022-08-12T19:26:01.312Z,27.30
2022-08-12T19:28:35.260Z,27.20
2022-08-12T19:31:55.762Z,27.10
2022-08-12T19:36:07.858Z,27.10
2022-08-12T19:38:03.976Z,26.90
2022-08-12T19:40:54.722Z,26.80
2022-08-12T19:44:00.863Z,26.70
2022-08-12T19:46:52.986Z,26.60
2022-08-12T19:49:55.164Z,26.50
2022-08-12T19:52:41.706Z,26.30
2022-08-12T19:55:28.965Z,26.30
2022-08-12T19:58:21.894Z,26.30
2022-08-12T20:01:11.512Z,26.20
2022-08-12T20:03:59.965Z,26.20
2022-08-12T20:06:51.443Z,26.10
2022-08-12T20:09:39.959Z,26.00
2022-08-12T20:12:32.921Z,26.00
2022-08-12T20:15:21.908Z,26.00
2022-08-12T20:18:19.047Z,26.00
2022-08-12T20:21:17.046Z,26.10
2022-08-12T20:24:12.152Z,26.00
2022-08-12T20:27:00.157Z,26.00
2022-08-12T20:29:47.397Z,26.00
2022-08-12T20:32:57.151Z,26.00
2022-08-12T20:36:06.567Z,25.90
2022-08-12T20:38:51.092Z,26.00
2022-08-12T20:41:38.619Z,26.00
2022-08-12T20:44:28.582Z,26.00
2022-08-12T20:47:19.580Z,26.00
2022-08-12T20:50:07.987Z,26.00
2022-08-12T20:52:54.115Z,26.00
2022-08-12T20:55:42.691Z,26.00
2022-08-12T20:58:28.795Z,26.00
2022-08-12T21:01:15.381Z,26.00
2022-08-12T21:04:24.239Z,26.00
2022-08-12T21:07:11.520Z,25.90
2022-08-12T21:09:57.162Z,25.80
2022-08-12T21:12:42.779Z,25.90
2022-08-12T21:15:30.745Z,25.80
2022-08-12T21:18:33.317Z,25.60
2022-08-12T21:21:23.864Z,25.60
2022-08-12T21:24:31.782Z,25.50
2022-08-12T21:27:18.242Z,25.50
2022-08-12T21:30:06.192Z,25.40
2022-08-12T21:32:52.857Z,25.40
2022-08-12T21:35:39.937Z,25.20
2022-08-12T21:38:34.577Z,25.20
2022-08-12T21:41:20.574Z,25.10
2022-08-12T21:47:21.575Z,25.10
2022-08-12T21:50:14.139Z,25.00
2022-08-12T21:53:10.562Z,25.00
2022-08-12T21:55:57.426Z,24.90
2022-08-12T21:58:42.821Z,24.80
2022-08-12T22:01:28.346Z,24.80
2022-08-12T22:04:35.713Z,24.80
2022-08-12T22:07:27.666Z,24.80
2022-08-12T22:10:14.596Z,24.60
2022-08-12T22:13:01.146Z,24.60
2022-08-12T22:15:52.995Z,24.60
2022-08-12T22:18:42.530Z,24.50
2022-08-12T22:21:27.825Z,24.50
2022-08-12T22:24:25.683Z,24.40
2022-08-12T22:27:31.346Z,24.30
2022-08-12T22:30:36.940Z,24.20
2022-08-12T22:33:22.308Z,24.20
2022-08-12T22:36:10.726Z,24.30
2022-08-12T22:38:58.452Z,24.40
2022-08-12T22:42:03.533Z,24.40
2022-08-12T22:45:16.225Z,24.30
2022-08-12T22:48:01.881Z,24.20
2022-08-12T22:50:48.161Z,24.10
2022-08-12T22:53:36.055Z,24.10
2022-08-12T22:56:30.982Z,24.00
2022-08-12T22:59:16.809Z,24.00
2022-08-12T23:02:02.636Z,24.00
2022-08-12T23:04:48.160Z,24.00
2022-08-12T23:07:58.720Z,23.90
2022-08-12T23:10:42.602Z,23.80
2022-08-12T23:13:48.911Z,23.70
2022-08-12T23:16:41.525Z,23.60
2022-08-12T23:19:36.101Z,23.60
2022-08-12T23:22:36.666Z,23.60
2022-08-12T23:25:22.374Z,23.60
2022-08-12T23:28:36.908Z,23.60
2022-08-12T23:32:01.924Z,23.50
2022-08-12T23:34:36.043Z,23.50
2022-08-12T23:37:46.423Z,23.50
2022-08-12T23:40:29.008Z,23.50
2022-08-12T23:43:16.319Z,23.50
2022-08-12T23:46:08.739Z,23.50
2022-08-12T23:48:56.727Z,23.40
2022-08-12T23:51:42.036Z,23.30
2022-08-12T23:54:38.550Z,23.20
2022-08-12T23:57:26.496Z,23.20
